Time;durP1;ratioP1;P1;durP2;ratioP2;P2;SDS_P1;SDS_P2;PMS_P1;PMS_P2;Temp;Humidity;BMP_temperature;BMP_pressure;BME280_temperature;BME280_humidity;BME280_pressure;Samples;Min_cycle;Max_cycle;Signal;HPM_P1;HPM_P2
2023/03/13 00:01:13;;;;;;;15.88;2.13;;;;;;;4.90;60.68;100053.94;5020686;28;20101;-67
2023/03/13 00:03:39;;;;;;;17.60;2.92;;;;;;;5.34;59.82;100046.56;5014780;28;20046;-68
2023/03/13 00:06:05;;;;;;;13.25;2.03;;;;;;;5.23;60.11;100044.31;5014344;28;20132;-68
2023/03/13 00:08:31;;;;;;;18.77;3.03;;;;;;;5.40;59.46;100030.84;5015660;28;20041;-68
2023/03/13 00:10:57;;;;;;;17.23;3.85;;;;;;;5.25;60.07;100027.81;5020546;28;20040;-68
2023/03/13 00:13:22;;;;;;;16.33;2.85;;;;;;;4.83;61.04;100025.63;5020952;28;20045;-68
2023/03/13 00:15:48;;;;;;;13.13;2.72;;;;;;;5.55;59.40;100017.38;5020909;28;20216;-69
2023/03/13 00:18:13;;;;;;;12.38;1.88;;;;;;;4.62;62.02;100021.06;5008681;28;20045;-68
2023/03/13 00:20:39;;;;;;;12.75;2.38;;;;;;;5.31;60.05;100005.22;4999251;28;20577;-66
2023/03/13 00:23:04;;;;;;;23.70;3.90;;;;;;;5.13;60.28;100012.69;4999756;28;20050;-72
2023/03/13 00:25:30;;;;;;;17.52;3.28;;;;;;;5.10;60.28;100004.13;5000740;28;20040;-68
2023/03/13 00:27:55;;;;;;;13.65;2.95;;;;;;;5.23;60.06;99992.50;4998463;28;20041;-72
2023/03/13 00:30:20;;;;;;;9.38;2.85;;;;;;;5.51;59.73;100002.84;4999172;28;20026;-67
2023/03/13 00:32:47;;;;;;;16.23;2.70;;;;;;;4.98;61.05;99988.09;4999939;28;20068;-67
2023/03/13 00:35:13;;;;;;;18.92;3.35;;;;;;;5.56;59.22;99984.53;4998962;28;20033;-66
2023/03/13 00:37:39;;;;;;;13.63;2.50;;;;;;;5.38;59.61;99986.00;5006814;28;20826;-67
2023/03/13 00:40:06;;;;;;;14.60;2.92;;;;;;;5.18;60.58;99976.25;5022944;28;20029;-66
2023/03/13 00:42:32;;;;;;;19.13;3.28;;;;;;;5.25;60.29;99977.75;5020122;28;20044;-66
2023/03/13 00:44:58;;;;;;;22.98;2.47;;;;;;;4.98;61.00;99966.53;5020891;28;20033;-65
2023/03/13 00:47:23;;;;;;;20.95;2.30;;;;;;;5.69;58.94;99959.06;5019685;28;20064;-66
2023/03/13 00:49:49;;;;;;;23.85;3.47;;;;;;;5.25;60.21;99946.66;5027485;28;20041;-63
2023/03/13 00:52:15;;;;;;;14.43;2.33;;;;;;;5.21;59.92;99930.41;5018930;28;20152;-64
2023/03/13 00:54:40;;;;;;;15.45;3.05;;;;;;;5.17;60.02;99935.72;5021119;28;20500;-65
2023/03/13 00:57:06;;;;;;;16.20;3.85;;;;;;;5.94;58.10;99927.91;5020123;28;20534;-64
2023/03/13 00:59:32;;;;;;;19.00;3.92;;;;;;;5.75;58.41;99910.41;5022331;28;20532;-70
2023/03/13 01:01:57;;;;;;;18.20;2.20;;;;;;;5.81;58.21;99906.75;5017192;28;20039;-70
2023/03/13 01:04:22;;;;;;;15.27;3.42;;;;;;;5.91;57.87;99902.94;5022569;28;20120;-70
2023/03/13 01:06:49;;;;;;;18.85;2.67;;;;;;;5.90;57.34;99900.38;5019902;28;20048;-68
2023/03/13 01:09:15;;;;;;;11.80;2.15;;;;;;;5.61;58.81;99890.16;4998890;28;20064;-69
2023/03/13 01:11:42;;;;;;;10.23;2.70;;;;;;;5.19;59.77;99895.91;5006795;28;20239;-69
2023/03/13 01:14:11;;;;;;;18.08;3.28;;;;;;;5.44;59.41;99871.75;5018617;28;20538;-69
2023/03/13 01:16:37;;;;;;;14.25;2.42;;;;;;;5.42;59.29;99874.41;5020116;28;20506;-68
2023/03/13 01:19:05;;;;;;;19.17;3.08;;;;;;;5.21;60.36;99860.44;5025277;28;20037;-70
2023/03/13 01:21:31;;;;;;;13.20;2.25;;;;;;;5.10;60.28;99864.28;5026054;28;20718;-71
2023/03/13 01:23:57;;;;;;;17.35;3.28;;;;;;;5.72;58.92;99850.88;5017744;28;20037;-71
2023/03/13 01:26:23;;;;;;;20.90;4.05;;;;;;;5.84;58.05;99845.25;5020877;28;20061;-71
2023/03/13 01:28:49;;;;;;;16.60;3.05;;;;;;;5.62;59.21;99846.94;5025588;28;20053;-70
2023/03/13 01:31:18;;;;;;;22.10;3.83;;;;;;;5.20;60.70;99837.16;5016727;28;20033;-71
2023/03/13 01:33:46;;;;;;;21.25;2.67;;;;;;;5.50;59.42;99827.47;5007946;28;20391;-71
2023/03/13 01:36:14;;;;;;;18.67;3.25;;;;;;;5.67;59.41;99822.53;5001620;28;20550;-70
2023/03/13 01:38:40;;;;;;;20.63;4.00;;;;;;;5.21;60.39;99811.22;5013933;28;20056;-72
2023/03/13 01:41:07;;;;;;;16.67;3.85;;;;;;;5.97;58.26;99808.47;5000443;28;20033;-72
2023/03/13 01:43:35;;;;;;;16.05;3.28;;;;;;;5.71;59.02;99796.50;4994534;28;20068;-70
2023/03/13 01:46:09;;;;;;;20.10;3.85;;;;;;;5.57;59.14;99790.09;5006504;28;20121;-65
2023/03/13 01:49:07;;;;;;;20.25;3.38;;;;;;;5.11;60.99;99786.53;5005198;28;20053;-66
2023/03/13 01:51:44;;;;;;;15.73;3.88;;;;;;;5.42;59.85;99782.84;5008896;28;20142;-67
2023/03/13 01:54:20;;;;;;;19.50;3.97;;;;;;;5.56;59.26;99778.00;4999992;28;20548;-69
2023/03/13 01:56:48;;;;;;;44.97;4.38;;;;;;;5.46;59.69;99766.31;5015361;28;20561;-69
2023/03/13 01:59:18;;;;;;;21.05;4.05;;;;;;;5.54;59.50;99758.22;5025170;28;20816;-69
2023/03/13 02:01:46;;;;;;;19.05;4.47;;;;;;;5.40;59.90;99748.38;5020072;28;20060;-69
2023/03/13 02:04:14;;;;;;;19.30;2.83;;;;;;;5.35;60.50;99747.72;5017959;28;20041;-70
2023/03/13 02:06:43;;;;;;;23.85;4.43;;;;;;;5.08;60.68;99729.66;5022559;28;20120;-69
2023/03/13 02:09:18;;;;;;;15.15;3.28;;;;;;;5.46;59.73;99735.19;5018557;28;20048;-69
2023/03/13 02:11:54;;;;;;;19.25;3.67;;;;;;;5.25;60.40;99716.91;5025844;28;20156;-69
2023/03/13 02:14:25;;;;;;;23.75;3.38;;;;;;;5.60;59.37;99709.59;5020331;28;20694;-70
2023/03/13 02:16:52;;;;;;;21.00;5.10;;;;;;;5.10;61.23;99707.16;5023242;28;20037;-69
2023/03/13 02:19:34;;;;;;;15.45;3.45;;;;;;;5.05;61.37;99701.25;5013008;28;21155;-69
2023/03/13 02:22:15;;;;;;;19.52;3.15;;;;;;;5.34;60.30;99692.44;5019950;28;20672;-69
2023/03/13 02:25:15;;;;;;;15.77;4.15;;;;;;;4.93;61.91;99678.41;5030073;28;20124;-69
2023/03/13 02:27:42;;;;;;;23.58;4.80;;;;;;;5.35;60.72;99686.34;5029543;28;20537;-69
2023/03/13 02:30:09;;;;;;;22.60;4.30;;;;;;;5.04;61.62;99676.28;5030678;28;20557;-70
2023/03/13 02:32:37;;;;;;;25.33;3.35;;;;;;;5.17;61.68;99674.94;5021117;28;20045;-69
2023/03/13 02:35:11;;;;;;;12.25;3.45;;;;;;;4.93;62.17;99668.06;5024021;28;20036;-69
2023/03/13 02:37:41;;;;;;;13.57;3.65;;;;;;;5.10;61.87;99657.06;5028286;28;20104;-69
2023/03/13 02:40:14;;;;;;;20.55;3.42;;;;;;;5.09;62.05;99653.63;5028495;28;20043;-68
2023/03/13 02:42:44;;;;;;;23.80;3.20;;;;;;;5.39;60.53;99646.47;5028291;28;20479;-68
2023/03/13 02:45:13;;;;;;;24.48;2.75;;;;;;;4.90;62.37;99635.34;5021787;28;20025;-66
2023/03/13 02:47:39;;;;;;;27.15;4.78;;;;;;;4.96;62.48;99626.50;5019695;28;20468;-67
2023/03/13 02:50:05;;;;;;;16.48;2.25;;;;;;;5.48;60.47;99619.38;5023296;28;20140;-68
2023/03/13 02:52:39;;;;;;;17.90;3.53;;;;;;;5.28;61.84;99616.69;5031655;28;20046;-67
2023/03/13 02:55:11;;;;;;;19.75;3.45;;;;;;;5.20;62.38;99604.88;5003102;28;20030;-68
2023/03/13 02:57:37;;;;;;;21.60;2.80;;;;;;;4.99;62.72;99605.69;4998473;28;20116;-67
2023/03/13 03:00:05;;;;;;;19.92;3.40;;;;;;;5.10;62.67;99597.50;5004490;28;20029;-70
2023/03/13 03:02:32;;;;;;;17.58;3.28;;;;;;;5.25;62.10;99583.97;5012417;28;20120;-68
2023/03/13 03:04:57;;;;;;;17.60;3.13;;;;;;;5.32;61.59;99572.44;5009886;28;20128;-69
2023/03/13 03:07:23;;;;;;;25.13;4.68;;;;;;;5.47;61.01;99560.66;5027138;28;20040;-69
2023/03/13 03:09:49;;;;;;;19.58;3.22;;;;;;;4.86;63.63;99557.81;5013665;28;20057;-68
2023/03/13 03:12:17;;;;;;;23.23;3.63;;;;;;;5.16;62.71;99548.88;5002729;28;20038;-69
2023/03/13 03:14:43;;;;;;;16.00;3.38;;;;;;;4.91;63.38;99535.22;5008419;28;20048;-69
2023/03/13 03:17:09;;;;;;;18.20;3.90;;;;;;;5.18;63.12;99541.06;5004767;28;20113;-69
2023/03/13 03:19:35;;;;;;;24.23;3.40;;;;;;;5.37;62.33;99543.78;5005904;28;20132;-69
2023/03/13 03:22:00;;;;;;;18.92;3.30;;;;;;;5.44;61.81;99529.69;5004316;28;20030;-69
2023/03/13 03:24:26;;;;;;;22.98;2.53;;;;;;;5.18;63.24;99531.53;4971511;28;20045;-68
2023/03/13 03:26:51;;;;;;;16.42;2.88;;;;;;;5.12;63.41;99521.41;4992460;28;20392;-69
2023/03/13 03:29:24;;;;;;;14.80;2.78;;;;;;;5.08;63.56;99504.34;4974575;28;20148;-70
2023/03/13 03:31:52;;;;;;;18.75;3.65;;;;;;;4.80;64.53;99507.94;4988144;28;20042;-72
2023/03/13 03:34:18;;;;;;;10.13;3.00;;;;;;;5.23;62.67;99493.38;4996653;28;20085;-68
2023/03/13 03:36:44;;;;;;;12.55;2.63;;;;;;;5.51;62.36;99494.84;4999959;28;20838;-65
2023/03/13 03:39:10;;;;;;;22.38;4.25;;;;;;;5.15;63.50;99485.06;4997375;28;20056;-68
2023/03/13 03:41:36;;;;;;;11.00;3.42;;;;;;;4.63;65.15;99467.19;4999819;28;20799;-68
2023/03/13 03:44:03;;;;;;;13.77;2.70;;;;;;;4.82;65.18;99464.72;4974104;28;20063;-68
2023/03/13 03:46:38;;;;;;;9.30;2.20;;;;;;;5.14;64.06;99456.63;4993960;28;20077;-68
2023/03/13 03:49:04;;;;;;;21.25;3.88;;;;;;;4.84;65.04;99443.94;5000729;28;20180;-68
2023/03/13 03:51:30;;;;;;;14.02;2.63;;;;;;;4.72;65.64;99444.41;5007673;28;20029;-68
2023/03/13 03:53:55;;;;;;;10.27;2.10;;;;;;;5.30;64.03;99431.78;5001026;28;20034;-71
2023/03/13 03:56:21;;;;;;;7.15;2.05;;;;;;;5.22;63.88;99437.28;5002959;28;20025;-75
2023/03/13 03:58:52;;;;;;;11.18;2.10;;;;;;;5.20;63.92;99412.34;5002293;28;20041;-76
2023/03/13 04:01:40;;;;;;;10.05;2.53;;;;;;;5.32;62.90;99409.22;5003317;28;20191;-75
2023/03/13 04:04:05;;;;;;;8.50;2.58;;;;;;;5.30;63.82;99386.88;5000889;28;20124;-72
2023/03/13 04:06:31;;;;;;;10.38;1.98;;;;;;;5.33;63.49;99377.25;5004289;28;20502;-71
2023/03/13 04:08:57;;;;;;;11.27;2.30;;;;;;;5.22;63.89;99385.47;5005355;28;20025;-71
2023/03/13 04:11:25;;;;;;;3.80;1.17;;;;;;;5.24;64.53;99381.06;4997219;28;20038;-69
2023/03/13 04:13:53;;;;;;;5.28;0.95;;;;;;;5.39;64.07;99370.94;4998198;28;20036;-70
2023/03/13 04:16:18;;;;;;;6.82;0.93;;;;;;;5.29;64.41;99359.31;4999685;28;20037;-69
2023/03/13 04:18:45;;;;;;;7.18;1.05;;;;;;;5.20;64.69;99351.00;5001748;28;20124;-69
2023/03/13 04:21:11;;;;;;;5.50;0.93;;;;;;;5.16;65.00;99354.63;5000354;28;20128;-69
2023/03/13 04:23:43;;;;;;;4.63;0.98;;;;;;;5.16;65.25;99338.25;5001166;28;20049;-70
2023/03/13 04:26:10;;;;;;;8.48;1.52;;;;;;;5.30;64.89;99350.63;5000759;28;20156;-68
2023/03/13 04:28:37;;;;;;;3.47;0.90;;;;;;;5.36;64.87;99334.81;5006087;28;20028;-69
2023/03/13 04:31:05;;;;;;;3.85;0.75;;;;;;;4.94;66.36;99327.94;5000137;28;20044;-70
2023/03/13 04:33:46;;;;;;;5.80;0.73;;;;;;;5.00;66.38;99328.53;5000823;28;20069;-70
2023/03/13 04:36:26;;;;;;;1.25;0.45;;;;;;;5.29;65.81;99326.47;5000950;28;20145;-70
2023/03/13 04:39:12;;;;;;;2.10;0.57;;;;;;;5.44;65.44;99306.84;4998088;28;20065;-70
2023/03/13 04:42:10;;;;;;;1.45;0.70;;;;;;;5.78;64.62;99315.72;5001524;28;20472;-72
2023/03/13 04:44:55;;;;;;;2.22;0.65;;;;;;;4.61;67.94;99303.34;4996959;28;20045;-72
2023/03/13 04:47:42;;;;;;;3.00;0.80;;;;;;;5.37;65.90;99310.56;5000893;28;20139;-72
2023/03/13 04:50:28;;;;;;;4.65;0.82;;;;;;;4.70;68.10;99283.16;4998634;28;20314;-71
2023/03/13 04:53:19;;;;;;;3.13;0.63;;;;;;;5.14;67.17;99296.88;4999467;28;20434;-72
2023/03/13 04:55:52;;;;;;;2.05;0.60;;;;;;;5.54;65.48;99283.94;4996718;28;20128;-71
2023/03/13 04:58:32;;;;;;;3.28;0.52;;;;;;;5.23;66.99;99273.19;5000224;28;20045;-71
2023/03/13 05:01:07;;;;;;;1.20;0.30;;;;;;;5.81;65.12;99271.47;5005631;28;20540;-71
2023/03/13 05:03:51;;;;;;;3.42;0.70;;;;;;;5.54;66.02;99270.97;4996371;28;20054;-73
2023/03/13 05:06:36;;;;;;;2.17;0.82;;;;;;;5.44;66.81;99260.19;5001442;28;20048;-71
2023/03/13 05:09:21;;;;;;;3.47;0.45;;;;;;;5.59;65.92;99251.75;4998517;28;20684;-72
2023/03/13 05:12:10;;;;;;;1.45;0.30;;;;;;;5.82;65.50;99247.25;5011803;28;20053;-71
2023/03/13 05:14:55;;;;;;;2.33;0.40;;;;;;;5.85;65.66;99245.34;5008410;28;20426;-70
2023/03/13 05:17:39;;;;;;;3.13;0.55;;;;;;;5.21;67.79;99237.88;5005787;28;20163;-71
2023/03/13 05:20:24;;;;;;;1.23;0.50;;;;;;;5.41;66.46;99218.84;4996192;28;20025;-71
2023/03/13 05:22:58;;;;;;;1.35;0.40;;;;;;;5.37;67.48;99217.31;4998085;28;20743;-71
2023/03/13 05:25:42;;;;;;;1.23;0.40;;;;;;;5.48;67.29;99215.09;4999441;28;20052;-71
2023/03/13 05:28:31;;;;;;;1.90;0.63;;;;;;;5.81;66.79;99224.81;5004549;28;20029;-71
2023/03/13 05:31:15;;;;;;;2.15;0.57;;;;;;;5.85;66.73;99209.03;4994587;28;20053;-71
2023/03/13 05:33:55;;;;;;;2.80;0.65;;;;;;;6.25;65.73;99201.13;5003523;28;20059;-71
2023/03/13 05:36:51;;;;;;;1.60;0.77;;;;;;;6.11;65.82;99204.38;5000985;28;20041;-70
2023/03/13 05:39:36;;;;;;;3.88;1.38;;;;;;;5.79;67.20;99200.72;4985951;28;20064;-70
2023/03/13 05:42:11;;;;;;;1.98;1.05;;;;;;;5.97;66.81;99179.13;5001859;28;20042;-67
2023/03/13 05:44:48;;;;;;;2.00;0.98;;;;;;;5.64;68.29;99190.16;5000001;28;20113;-66
2023/03/13 05:47:46;;;;;;;3.15;0.98;;;;;;;6.11;66.74;99188.81;5018901;28;20519;-69
2023/03/13 05:50:39;;;;;;;2.42;1.20;;;;;;;5.78;67.95;99179.13;5000185;28;20050;-67
2023/03/13 05:53:32;;;;;;;2.65;1.00;;;;;;;6.37;66.40;99186.72;4999369;28;20601;-70
2023/03/13 05:56:14;;;;;;;5.80;0.73;;;;;;;6.19;67.12;99178.06;5007243;28;20053;-70
2023/03/13 05:58:57;;;;;;;1.77;0.57;;;;;;;6.20;66.71;99169.38;5007393;28;20044;-70
2023/03/13 06:01:58;;;;;;;2.50;1.05;;;;;;;6.32;66.34;99176.56;4990978;28;20430;-70
2023/03/13 06:04:30;;;;;;;3.03;1.25;;;;;;;6.25;66.75;99169.97;4992220;28;20038;-74
2023/03/13 06:06:56;;;;;;;1.48;0.90;;;;;;;6.25;67.50;99154.41;5019838;28;20521;-72
2023/03/13 06:09:22;;;;;;;3.03;1.40;;;;;;;6.64;65.80;99168.94;4995053;28;20885;-73
2023/03/13 06:11:48;;;;;;;2.78;0.73;;;;;;;6.46;66.70;99155.13;5005516;28;20506;-73
2023/03/13 06:14:14;;;;;;;2.33;0.52;;;;;;;6.56;66.04;99150.31;5000491;28;20048;-75
2023/03/13 06:16:46;;;;;;;1.75;0.55;;;;;;;6.50;66.65;99139.31;5007545;28;20029;-74
2023/03/13 06:19:17;;;;;;;3.03;0.43;;;;;;;6.42;67.47;99151.03;5000825;28;20049;-74
2023/03/13 06:21:43;;;;;;;2.22;0.68;;;;;;;6.28;67.38;99129.22;5004630;28;20053;-74
2023/03/13 06:24:09;;;;;;;1.02;0.75;;;;;;;6.88;65.68;99146.88;5003892;28;20183;-75
2023/03/13 06:26:34;;;;;;;1.88;0.90;;;;;;;6.85;65.80;99147.06;5001740;28;20490;-73
2023/03/13 06:28:59;;;;;;;2.17;0.60;;;;;;;6.35;67.47;99150.50;5002941;28;20025;-72
2023/03/13 06:31:25;;;;;;;1.45;0.70;;;;;;;6.55;67.43;99151.22;5002101;28;20818;-71
2023/03/13 06:33:54;;;;;;;1.40;0.52;;;;;;;6.74;66.84;99144.19;4999388;28;20068;-72
2023/03/13 06:36:21;;;;;;;2.45;0.35;;;;;;;6.99;65.93;99135.13;5002132;28;20038;-71
2023/03/13 06:38:46;;;;;;;0.90;0.38;;;;;;;7.00;65.84;99141.97;5002757;28;20087;-72
2023/03/13 06:41:12;;;;;;;1.58;0.90;;;;;;;6.74;66.99;99144.19;4999542;28;20338;-67
2023/03/13 06:43:39;;;;;;;1.65;0.70;;;;;;;6.94;66.05;99137.94;4999082;28;20044;-72
2023/03/13 06:46:06;;;;;;;1.75;0.93;;;;;;;6.64;66.86;99122.19;5001189;28;20051;-68
2023/03/13 06:48:32;;;;;;;1.92;0.77;;;;;;;7.05;66.06;99125.25;4998699;28;20045;-68
2023/03/13 06:50:58;;;;;;;1.85;1.30;;;;;;;7.02;66.35;99116.75;4998637;28;20034;-67
2023/03/13 06:53:23;;;;;;;4.00;0.90;;;;;;;6.85;66.79;99115.91;4998652;28;20034;-73
2023/03/13 06:55:49;;;;;;;2.15;0.95;;;;;;;7.10;66.51;99125.00;4998453;28;20087;-74
2023/03/13 06:58:16;;;;;;;2.17;0.52;;;;;;;6.98;67.25;99112.66;5001011;28;20026;-75
2023/03/13 07:00:43;;;;;;;2.85;1.15;;;;;;;6.82;67.73;99133.38;4998161;28;20132;-76
2023/03/13 07:03:09;;;;;;;2.60;1.48;;;;;;;7.08;67.11;99108.66;5004151;28;20098;-76
2023/03/13 07:05:35;;;;;;;2.67;0.93;;;;;;;7.29;66.65;99123.09;4995731;28;20042;-76
2023/03/13 07:08:01;;;;;;;2.28;1.13;;;;;;;7.00;67.43;99114.25;5002108;28;20376;-76
2023/03/13 07:10:26;;;;;;;6.70;1.02;;;;;;;6.84;68.05;99096.06;4998350;28;20042;-74
2023/03/13 07:12:52;;;;;;;2.83;1.33;;;;;;;7.19;67.08;99111.50;4999338;28;21174;-75
2023/03/13 07:15:17;;;;;;;3.33;1.23;;;;;;;7.49;66.39;99103.81;5000924;28;20336;-75
2023/03/13 07:17:43;;;;;;;3.28;1.17;;;;;;;7.12;67.65;99104.97;4999859;28;20080;-71
2023/03/13 07:20:09;;;;;;;2.28;0.73;;;;;;;7.43;66.89;99109.34;5002408;28;20041;-70
2023/03/13 07:22:36;;;;;;;2.67;1.05;;;;;;;7.63;65.77;99110.03;4993261;28;20038;-70
2023/03/13 07:25:03;;;;;;;3.28;0.90;;;;;;;7.08;68.48;99111.25;5001170;28;20132;-71
2023/03/13 07:27:29;;;;;;;2.60;1.30;;;;;;;7.33;67.30;99110.75;4998246;28;20037;-69
2023/03/13 07:29:55;;;;;;;3.60;1.33;;;;;;;7.26;68.07;99112.00;5000438;28;20707;-69
2023/03/13 07:32:21;;;;;;;1.45;0.77;;;;;;;7.41;67.31;99105.97;5000738;28;20046;-71
2023/03/13 07:34:47;;;;;;;2.15;1.20;;;;;;;7.39;67.29;99086.19;4999748;28;20148;-73
2023/03/13 07:37:14;;;;;;;2.28;1.08;;;;;;;7.60;66.71;99102.38;4966541;28;1212799;-72
2023/03/13 07:39:41;;;;;;;3.45;1.55;;;;;;;7.21;67.98;99095.84;5000174;28;20049;-69
2023/03/13 07:42:09;;;;;;;4.68;1.90;;;;;;;7.74;66.20;99098.09;5001449;28;20062;-69
2023/03/13 07:44:35;;;;;;;6.25;1.55;;;;;;;7.10;68.33;99092.03;4998174;28;20053;-69
2023/03/13 07:47:00;;;;;;;4.40;2.10;;;;;;;7.41;67.48;99094.75;5004361;28;20042;-69
2023/03/13 07:49:26;;;;;;;5.03;2.00;;;;;;;7.43;67.06;99085.09;4997080;28;20050;-69
2023/03/13 07:51:51;;;;;;;8.02;2.15;;;;;;;7.38;67.88;99094.91;5003174;28;20068;-68
2023/03/13 07:54:17;;;;;;;5.68;1.30;;;;;;;7.58;66.53;99096.44;4998845;28;20116;-68
2023/03/13 07:56:42;;;;;;;3.20;1.52;;;;;;;7.25;67.47;99082.59;4999952;28;20132;-66
2023/03/13 07:59:08;;;;;;;5.60;2.63;;;;;;;7.40;66.86;99091.31;5000447;28;20160;-68
2023/03/13 08:01:34;;;;;;;7.50;2.10;;;;;;;7.47;66.89;99091.81;4997782;28;20041;-68
2023/03/13 08:04:00;;;;;;;7.60;2.67;;;;;;;7.55;66.07;99092.25;5001740;28;20037;-67
2023/03/13 08:06:26;;;;;;;8.75;2.78;;;;;;;7.46;66.21;99074.53;5001359;28;21273;-68
2023/03/13 08:08:55;;;;;;;5.47;3.03;;;;;;;7.43;66.05;99092.91;4998509;28;20042;-68
2023/03/13 08:11:25;;;;;;;8.60;2.22;;;;;;;7.64;65.37;99076.13;5000811;28;20053;-68
2023/03/13 08:13:55;;;;;;;7.72;2.53;;;;;;;7.53;65.69;99073.25;4997822;28;20033;-68
2023/03/13 08:16:23;;;;;;;5.32;2.13;;;;;;;8.12;63.85;99071.63;5013812;28;20048;-68
2023/03/13 08:18:53;;;;;;;7.90;2.80;;;;;;;7.50;65.64;99063.03;4997559;28;20041;-68
2023/03/13 08:21:24;;;;;;;8.02;2.58;;;;;;;7.77;65.14;99071.06;4996256;28;20044;-68
2023/03/13 08:23:55;;;;;;;5.95;1.88;;;;;;;7.87;64.88;99076.56;4997010;28;20037;-68
2023/03/13 08:26:23;;;;;;;4.35;2.58;;;;;;;7.82;65.17;99074.22;5018497;28;20601;-68
2023/03/13 08:28:54;;;;;;;5.20;2.53;;;;;;;8.08;64.59;99074.50;5018157;28;20037;-68
2023/03/13 08:31:23;;;;;;;7.88;2.83;;;;;;;7.57;66.46;99069.59;5018956;28;20049;-68
2023/03/13 08:33:48;;;;;;;6.28;2.65;;;;;;;7.68;66.21;99095.84;5032924;28;21448;-67
2023/03/13 08:36:16;;;;;;;6.88;2.47;;;;;;;7.51;66.82;99082.91;4997852;28;20680;-68
2023/03/13 08:38:43;;;;;;;13.13;2.20;;;;;;;7.95;65.31;99082.19;4997928;28;20461;-68
2023/03/13 08:41:10;;;;;;;8.70;1.98;;;;;;;7.68;66.00;99071.59;4997693;28;20516;-68
2023/03/13 08:43:35;;;;;;;6.43;1.92;;;;;;;7.61;66.34;99078.91;4995586;28;20033;-68
2023/03/13 08:46:01;;;;;;;8.93;2.10;;;;;;;8.22;64.30;99081.50;4995674;28;20463;-67
2023/03/13 08:48:26;;;;;;;3.53;1.63;;;;;;;7.41;67.04;99037.56;4996376;28;20033;-68
2023/03/13 08:51:19;;;;;;;5.93;2.25;;;;;;;7.40;66.73;99067.94;4994733;28;20703;-67
2023/03/13 08:53:45;;;;;;;6.10;1.58;;;;;;;7.81;65.63;99087.34;4993164;28;20110;-70
2023/03/13 08:56:13;;;;;;;11.35;1.85;;;;;;;7.42;67.89;99080.81;4995061;28;20034;-68
2023/03/13 08:58:39;;;;;;;5.07;1.25;;;;;;;7.72;66.28;99089.53;4995663;28;20061;-68
2023/03/13 09:01:12;;;;;;;6.53;2.08;;;;;;;7.45;67.30;99099.69;4995178;28;20637;-67
2023/03/13 09:03:39;;;;;;;3.88;1.20;;;;;;;7.71;66.36;99095.69;4996736;28;20055;-69
2023/03/13 09:06:05;;;;;;;4.13;1.10;;;;;;;7.78;66.46;99095.31;4997607;28;20033;-68
2023/03/13 09:08:31;;;;;;;3.80;1.55;;;;;;;7.73;66.15;99065.22;4997727;28;20260;-67
2023/03/13 09:11:04;;;;;;;9.70;1.17;;;;;;;7.86;65.29;99099.16;4995453;28;20053;-68
2023/03/13 09:13:32;;;;;;;3.55;0.88;;;;;;;8.01;64.54;99063.63;4997655;28;20037;-68
2023/03/13 09:16:03;;;;;;;7.60;1.63;;;;;;;8.81;62.98;99058.91;4997099;28;20034;-68
2023/03/13 09:18:33;;;;;;;1.65;0.85;;;;;;;9.23;61.05;99064.97;4997284;28;20040;-66
2023/03/13 09:21:01;;;;;;;2.50;0.30;;;;;;;9.16;60.67;99050.63;4993482;28;20062;-67
2023/03/13 09:23:27;;;;;;;2.88;0.50;;;;;;;8.95;60.30;99045.84;4998236;28;20045;-66
2023/03/13 09:25:54;;;;;;;2.72;0.80;;;;;;;8.84;61.24;99047.44;4997639;28;20041;-65
2023/03/13 09:28:21;;;;;;;2.58;0.57;;;;;;;9.39;59.73;99065.66;5000201;28;20045;-68
2023/03/13 09:30:48;;;;;;;2.15;0.52;;;;;;;8.68;60.79;99083.97;4994674;28;20458;-66
2023/03/13 09:33:18;;;;;;;4.00;0.57;;;;;;;9.00;58.89;99057.75;4999778;28;20056;-67
2023/03/13 09:35:49;;;;;;;3.38;1.00;;;;;;;9.02;59.84;99055.88;4996355;28;20087;-66
2023/03/13 09:38:19;;;;;;;3.30;0.30;;;;;;;9.11;58.89;99081.38;4998785;28;20586;-66
2023/03/13 09:40:47;;;;;;;5.40;0.68;;;;;;;9.10;58.58;99058.84;4996190;28;20042;-67
2023/03/13 09:43:39;;;;;;;4.35;0.60;;;;;;;9.68;55.77;99075.13;5000871;28;20029;-66
2023/03/13 09:46:13;;;;;;;1.23;0.40;;;;;;;10.28;55.34;99059.03;4998714;28;20124;-68
2023/03/13 09:48:44;;;;;;;2.47;0.20;;;;;;;10.80;53.46;99060.66;4997056;28;20351;-66
2023/03/13 09:51:17;;;;;;;2.10;0.20;;;;;;;10.56;53.43;99065.78;5004152;28;20427;-66
2023/03/13 09:53:59;;;;;;;5.80;0.20;;;;;;;10.52;53.16;99063.50;4996939;28;20041;-66
2023/03/13 09:56:46;;;;;;;2.45;0.20;;;;;;;9.89;54.75;99063.34;5018795;28;20052;-66
2023/03/13 09:59:45;;;;;;;3.47;0.28;;;;;;;10.45;53.90;99076.13;5018699;28;20037;-66
2023/03/13 10:02:28;;;;;;;1.88;0.20;;;;;;;10.36;52.91;99066.31;5020424;28;20033;-67
2023/03/13 10:05:11;;;;;;;0.90;0.20;;;;;;;9.97;53.42;99068.06;5017577;28;20522;-66
2023/03/13 10:07:36;;;;;;;2.55;0.10;;;;;;;9.65;53.50;99055.31;5017009;28;20048;-67
2023/03/13 10:10:05;;;;;;;2.25;0.20;;;;;;;9.78;53.77;99077.03;5019703;28;20045;-66
2023/03/13 10:12:41;;;;;;;2.50;0.50;;;;;;;9.63;53.80;99062.38;5017575;28;20069;-67
2023/03/13 10:15:32;;;;;;;1.50;0.20;;;;;;;10.17;52.89;99087.63;5020328;28;20037;-67
2023/03/13 10:18:04;;;;;;;2.35;0.20;;;;;;;9.53;55.37;99079.59;5019027;28;20470;-66
2023/03/13 10:20:34;;;;;;;4.13;0.40;;;;;;;9.32;56.87;99068.75;5019166;28;20583;-65
2023/03/13 10:23:02;;;;;;;4.30;0.10;;;;;;;9.54;56.07;99086.47;5019394;28;20044;-67
2023/03/13 10:25:37;;;;;;;3.40;0.28;;;;;;;9.23;56.86;99080.63;5019063;28;20037;-67
2023/03/13 10:28:03;;;;;;;4.70;0.55;;;;;;;9.85;54.48;99084.50;5019477;28;20040;-67
2023/03/13 10:30:33;;;;;;;2.78;0.85;;;;;;;9.56;54.69;99082.00;5017139;28;20045;-69
2023/03/13 10:33:17;;;;;;;4.45;0.50;;;;;;;9.60;55.30;99088.69;5021720;28;20553;-67
2023/03/13 10:35:42;;;;;;;1.30;0.20;;;;;;;9.17;55.22;99070.56;5019746;28;20071;-66
2023/03/13 10:38:12;;;;;;;2.03;0.38;;;;;;;9.29;55.18;99084.59;5025298;28;20128;-67
2023/03/13 10:40:39;;;;;;;4.03;0.40;;;;;;;9.62;53.93;99060.72;5019756;28;20552;-67
2023/03/13 10:43:26;;;;;;;4.55;0.93;;;;;;;10.08;52.95;99056.88;5024002;28;20036;-66
2023/03/13 10:45:52;;;;;;;5.63;0.30;;;;;;;10.00;52.22;99060.84;5019382;28;20469;-67
2023/03/13 10:48:20;;;;;;;4.97;0.93;;;;;;;10.55;50.65;99051.06;5023992;28;20047;-67
2023/03/13 10:50:49;;;;;;;3.35;1.13;;;;;;;11.19;49.46;99057.97;5030785;28;20064;-67
2023/03/13 10:53:28;;;;;;;1.95;0.50;;;;;;;10.33;49.92;99043.88;5038284;28;20036;-66
2023/03/13 10:56:10;;;;;;;5.70;0.43;;;;;;;11.10;48.31;99048.16;5036698;28;20115;-66
2023/03/13 10:58:48;;;;;;;4.43;0.77;;;;;;;11.22;47.46;99036.84;5031835;28;20044;-66
2023/03/13 11:01:27;;;;;;;4.22;0.55;;;;;;;11.16;47.76;99039.91;5023754;28;20206;-67
2023/03/13 11:03:55;;;;;;;10.35;1.33;;;;;;;10.86;46.74;99043.75;5020192;28;20041;-67
2023/03/13 11:06:30;;;;;;;6.88;0.80;;;;;;;10.41;47.01;99041.56;5023231;28;20101;-67
2023/03/13 11:09:01;;;;;;;7.68;1.13;;;;;;;11.09;46.65;99034.28;5021216;28;20047;-66
2023/03/13 11:11:29;;;;;;;7.63;0.68;;;;;;;11.23;46.08;99031.47;5020587;28;20756;-67
2023/03/13 11:14:19;;;;;;;6.55;0.63;;;;;;;11.32;46.60;99029.16;5020658;28;20029;-68
2023/03/13 11:16:49;;;;;;;6.88;1.05;;;;;;;10.95;46.83;99022.19;5023032;28;20037;-67
2023/03/13 11:19:37;;;;;;;6.53;1.20;;;;;;;11.92;44.63;99022.16;5021396;28;20149;-67
2023/03/13 11:22:11;;;;;;;8.82;1.63;;;;;;;11.30;45.70;99026.66;5019866;28;20037;-67
2023/03/13 11:25:25;;;;;;;10.00;1.05;;;;;;;11.26;45.17;99022.56;5020710;28;20518;-68
2023/03/13 11:28:21;;;;;;;7.85;0.70;;;;;;;10.97;45.86;99058.66;5012817;28;20056;-66
2023/03/13 11:30:53;;;;;;;10.40;0.50;;;;;;;11.17;45.78;99025.84;5019327;28;20076;-69
2023/03/13 11:33:21;;;;;;;10.15;1.10;;;;;;;11.29;45.13;99030.22;5020735;28;20596;-68
2023/03/13 11:35:58;;;;;;;3.45;0.95;;;;;;;11.10;45.17;99030.69;5017406;28;20069;-68
2023/03/13 11:38:31;;;;;;;5.65;0.90;;;;;;;11.05;45.04;99038.88;5022507;28;20036;-69
2023/03/13 11:40:59;;;;;;;8.73;1.50;;;;;;;11.00;44.28;99030.53;5017809;28;20069;-68
2023/03/13 11:43:49;;;;;;;8.63;1.13;;;;;;;10.59;45.22;99034.25;5019459;28;20582;-67
2023/03/13 11:46:36;;;;;;;5.80;0.43;;;;;;;11.11;43.85;99036.78;5017157;28;20045;-68
2023/03/13 11:49:21;;;;;;;6.22;0.65;;;;;;;12.20;42.34;99032.22;5025049;28;20133;-68
2023/03/13 11:52:38;;;;;;;13.90;0.95;;;;;;;11.94;42.47;99038.59;5018468;28;20127;-67
2023/03/13 11:55:22;;;;;;;4.18;1.10;;;;;;;11.51;43.72;99028.63;5005579;28;21071;-69
2023/03/13 11:58:18;;;;;;;5.80;1.27;;;;;;;11.84;43.12;99028.81;5019039;28;20159;-68